createdAt,value
2023-03-04T00:02:20.435Z,4.10
2023-03-04T00:04:47.454Z,4.10
2023-03-04T00:07:16.846Z,4.10
2023-03-04T00:09:45.193Z,4.10
2023-03-04T00:12:13.177Z,4.20
2023-03-04T00:14:40.161Z,4.20
2023-03-04T00:17:07.729Z,4.30
2023-03-04T00:19:35.470Z,4.30
2023-03-04T00:22:04.147Z,4.30
2023-03-04T00:24:32.009Z,4.30
2023-03-04T00:26:59.467Z,4.30
2023-03-04T00:29:26.731Z,4.40
2023-03-04T00:31:54.110Z,4.40
2023-03-04T00:34:21.180Z,4.50
2023-03-04T00:36:48.432Z,4.50
2023-03-04T00:39:15.635Z,4.50
2023-03-04T00:41:42.893Z,4.50
2023-03-04T00:44:09.876Z,4.50
2023-03-04T00:46:37.064Z,4.50
2023-03-04T00:49:04.709Z,4.50
2023-03-04T00:51:31.920Z,4.50
2023-03-04T00:54:00.783Z,4.50
2023-03-04T00:56:28.441Z,4.60
2023-03-04T00:58:55.597Z,4.60
2023-03-04T01:01:23.027Z,4.60
2023-03-04T01:03:49.927Z,4.70
2023-03-04T01:06:17.231Z,4.70
2023-03-04T01:08:44.142Z,4.70
2023-03-04T01:11:11.540Z,4.70
2023-03-04T01:13:38.655Z,4.70
2023-03-04T01:16:06.855Z,4.70
2023-03-04T01:18:33.850Z,4.70
2023-03-04T01:21:01.130Z,4.80
2023-03-04T01:23:28.128Z,4.70
2023-03-04T01:25:55.339Z,4.70
2023-03-04T01:28:22.218Z,4.70
2023-03-04T01:30:49.549Z,4.60
2023-03-04T01:33:16.554Z,4.60
2023-03-04T01:35:43.901Z,4.60
2023-03-04T01:38:11.009Z,4.50
2023-03-04T01:40:38.977Z,4.50
2023-03-04T01:43:07.248Z,4.50
2023-03-04T01:45:35.888Z,4.40
2023-03-04T01:48:03.095Z,4.50
2023-03-04T01:50:34.519Z,4.50
2023-03-04T01:53:02.531Z,4.50
2023-03-04T01:55:31.061Z,4.50
2023-03-04T01:57:58.100Z,4.50
2023-03-04T02:00:31.763Z,4.50
2023-03-04T02:02:59.912Z,4.50
2023-03-04T02:05:28.132Z,4.50
2023-03-04T02:07:57.000Z,4.50
2023-03-04T02:10:24.864Z,4.50
2023-03-04T02:12:52.988Z,4.50
2023-03-04T02:15:21.267Z,4.60
2023-03-04T02:17:48.245Z,4.50
2023-03-04T02:20:30.628Z,4.60
2023-03-04T02:23:07.388Z,4.50
2023-03-04T02:25:43.165Z,4.50
2023-03-04T02:28:10.257Z,4.60
2023-03-04T02:30:37.554Z,4.60
2023-03-04T02:33:04.742Z,4.60
2023-03-04T02:35:32.766Z,4.60
2023-03-04T02:37:59.770Z,4.60
2023-03-04T02:40:31.138Z,4.50
2023-03-04T02:43:01.981Z,4.50
2023-03-04T02:45:38.216Z,4.50
2023-03-04T02:48:05.529Z,4.50
2023-03-04T02:50:36.940Z,4.50
2023-03-04T02:53:04.373Z,4.50
2023-03-04T02:55:32.468Z,4.50
2023-03-04T02:57:59.761Z,4.50
2023-03-04T03:00:27.788Z,4.60
2023-03-04T03:02:56.991Z,4.60
2023-03-04T03:05:27.340Z,4.60
2023-03-04T03:07:54.334Z,4.50
2023-03-04T03:10:21.788Z,4.50
2023-03-04T03:12:48.921Z,4.60
2023-03-04T03:15:16.447Z,4.50
2023-03-04T03:17:43.519Z,4.50
2023-03-04T03:20:12.426Z,4.50
2023-03-04T03:22:40.186Z,4.50
2023-03-04T03:25:08.943Z,4.50
2023-03-04T03:27:36.120Z,4.50
2023-03-04T03:30:04.201Z,4.40
2023-03-04T03:32:31.300Z,4.40
2023-03-04T03:34:58.566Z,4.50
2023-03-04T03:37:25.689Z,4.50
2023-03-04T03:39:52.838Z,4.40
2023-03-04T03:42:19.790Z,4.30
2023-03-04T03:44:46.973Z,4.30
2023-03-04T03:47:13.953Z,4.30
2023-03-04T03:49:41.150Z,4.30
2023-03-04T03:52:09.097Z,4.30
2023-03-04T03:54:36.706Z,4.30
2023-03-04T03:57:03.773Z,4.30
2023-03-04T03:59:30.988Z,4.30
2023-03-04T04:01:58.010Z,4.30
2023-03-04T04:04:25.317Z,4.20
2023-03-04T04:06:52.290Z,4.20
2023-03-04T04:09:19.817Z,4.20
2023-03-04T04:11:46.795Z,4.10
2023-03-04T04:14:14.958Z,4.20
2023-03-04T04:16:42.444Z,4.10
2023-03-04T04:19:18.641Z,4.10
2023-03-04T04:21:46.442Z,4.00
2023-03-04T04:24:13.867Z,4.00
2023-03-04T04:26:41.640Z,4.00
2023-03-04T04:29:10.184Z,4.00
2023-03-04T04:31:37.072Z,4.00
2023-03-04T04:34:04.305Z,3.90
2023-03-04T04:36:31.431Z,3.90
2023-03-04T04:38:58.683Z,3.90
2023-03-04T04:41:29.892Z,3.90
2023-03-04T04:43:57.512Z,3.90
2023-03-04T04:46:24.469Z,3.90
2023-03-04T04:48:51.676Z,3.80
2023-03-04T04:51:18.746Z,3.80
2023-03-04T04:53:45.990Z,3.80
2023-03-04T04:56:19.953Z,3.70
2023-03-04T04:58:48.261Z,3.70
2023-03-04T05:01:15.669Z,3.60
2023-03-04T05:03:43.153Z,3.60
2023-03-04T05:06:11.286Z,3.60
2023-03-04T05:08:38.762Z,3.50
2023-03-04T05:11:06.629Z,3.60
2023-03-04T05:13:34.615Z,3.60
2023-03-04T05:16:02.021Z,3.60
2023-03-04T05:18:29.899Z,3.60
2023-03-04T05:20:59.440Z,3.60
2023-03-04T05:23:28.629Z,3.60
2023-03-04T05:25:55.873Z,3.60
2023-03-04T05:28:23.637Z,3.70
2023-03-04T05:30:50.699Z,3.70
2023-03-04T05:33:18.248Z,3.80
2023-03-04T05:35:46.589Z,3.80
2023-03-04T05:38:15.141Z,3.80
2023-03-04T05:40:42.702Z,3.90
2023-03-04T05:43:10.323Z,3.90
2023-03-04T05:45:38.350Z,3.80
2023-03-04T05:48:06.419Z,3.90
2023-03-04T05:50:34.086Z,4.00
2023-03-04T05:53:01.426Z,4.00
2023-03-04T05:55:30.001Z,4.00
2023-03-04T05:57:58.076Z,4.00
2023-03-04T06:00:25.323Z,4.00
2023-03-04T06:02:52.870Z,4.00
2023-03-04T06:05:20.650Z,4.00
2023-03-04T06:07:48.014Z,4.10
2023-03-04T06:10:17.641Z,4.10
2023-03-04T06:12:44.881Z,4.10
2023-03-04T06:15:12.876Z,4.10
2023-03-04T06:17:42.293Z,4.10
2023-03-04T06:20:10.985Z,4.10
2023-03-04T06:22:38.524Z,4.10
2023-03-04T06:25:06.646Z,4.20
2023-03-04T06:27:33.990Z,4.10
2023-03-04T06:30:01.983Z,4.10
2023-03-04T06:32:29.510Z,4.20
2023-03-04T06:34:56.438Z,4.20
2023-03-04T06:37:23.995Z,4.20
2023-03-04T06:39:51.047Z,4.10
2023-03-04T06:42:18.523Z,4.10
2023-03-04T06:44:45.533Z,4.10
2023-03-04T06:47:12.734Z,4.20
2023-03-04T06:49:39.779Z,4.20
2023-03-04T06:52:07.076Z,4.20
2023-03-04T06:54:34.000Z,4.20
2023-03-04T06:57:01.202Z,4.20
2023-03-04T06:59:28.099Z,4.30
2023-03-04T07:01:55.397Z,4.20
2023-03-04T07:04:23.535Z,4.20
2023-03-04T07:06:51.106Z,4.20
2023-03-04T07:09:18.831Z,4.30
2023-03-04T07:11:46.016Z,4.30
2023-03-04T07:14:13.030Z,4.30
2023-03-04T07:16:40.794Z,4.30
2023-03-04T07:19:07.881Z,4.30
2023-03-04T07:21:35.066Z,4.30
2023-03-04T07:24:01.956Z,4.30
2023-03-04T07:26:29.278Z,4.30
2023-03-04T07:28:58.378Z,4.30
2023-03-04T07:31:31.100Z,4.40
2023-03-04T07:34:00.605Z,4.30
2023-03-04T07:36:28.191Z,4.30
2023-03-04T07:38:56.603Z,4.50
2023-03-04T07:41:26.706Z,4.60
2023-03-04T07:43:53.944Z,4.60
2023-03-04T07:46:21.441Z,4.60
2023-03-04T07:48:48.389Z,4.60
2023-03-04T07:51:21.690Z,4.60
2023-03-04T07:53:51.615Z,4.60
2023-03-04T07:56:21.336Z,4.50
2023-03-04T07:58:48.839Z,4.50
2023-03-04T08:01:19.298Z,4.50
2023-03-04T08:03:46.772Z,4.50
2023-03-04T08:06:15.820Z,4.50
2023-03-04T08:08:43.145Z,4.50
2023-03-04T08:11:13.721Z,4.50
2023-03-04T08:13:40.929Z,4.70
2023-03-04T08:16:08.641Z,4.80
2023-03-04T08:18:35.651Z,4.70
2023-03-04T08:21:07.860Z,4.70
2023-03-04T08:23:34.921Z,4.70
2023-03-04T08:26:09.957Z,4.70
2023-03-04T08:28:37.304Z,4.70
2023-03-04T08:31:04.721Z,4.50
2023-03-04T08:33:32.510Z,4.40
2023-03-04T08:36:00.193Z,4.40
2023-03-04T08:38:27.166Z,4.40
2023-03-04T08:40:56.236Z,4.50
2023-03-04T08:43:24.586Z,4.40
2023-03-04T08:45:53.536Z,4.30
2023-03-04T08:48:20.926Z,4.20
2023-03-04T08:50:49.493Z,4.20
2023-03-04T08:53:17.726Z,4.20
2023-03-04T08:55:45.224Z,4.40
2023-03-04T08:58:13.281Z,4.60
2023-03-04T09:00:43.894Z,4.60
2023-03-04T09:03:12.765Z,4.50
2023-03-04T09:05:40.662Z,4.50
2023-03-04T09:08:08.337Z,4.50
2023-03-04T09:10:35.483Z,4.70
2023-03-04T09:13:02.571Z,4.70
2023-03-04T09:15:29.934Z,4.50
2023-03-04T09:17:56.854Z,4.50
2023-03-04T09:20:24.217Z,4.60
2023-03-04T09:22:51.310Z,4.60
2023-03-04T09:25:18.749Z,4.50
2023-03-04T09:27:45.672Z,4.60
2023-03-04T09:30:13.363Z,4.50
2023-03-04T09:32:41.401Z,4.50
2023-03-04T09:35:10.084Z,4.40
2023-03-04T09:37:39.156Z,4.40
2023-03-04T09:40:08.496Z,4.30
2023-03-04T09:42:42.920Z,4.30
2023-03-04T09:45:23.350Z,4.40
2023-03-04T09:47:53.031Z,4.40
2023-03-04T09:50:22.019Z,4.30
2023-03-04T09:53:17.210Z,4.20
2023-03-04T09:55:49.093Z,4.40
2023-03-04T09:58:34.906Z,4.40
2023-03-04T10:01:22.728Z,4.30
2023-03-04T10:03:58.373Z,4.20
2023-03-04T10:06:26.382Z,4.20
2023-03-04T10:08:58.832Z,4.10
2023-03-04T10:11:48.972Z,4.10
2023-03-04T10:14:37.329Z,4.20
2023-03-04T10:17:16.521Z,4.30
2023-03-04T10:20:18.331Z,4.10
2023-03-04T10:22:46.841Z,4.10
2023-03-04T10:25:16.783Z,4.10
2023-03-04T10:28:05.157Z,4.00
2023-03-04T10:30:51.057Z,3.90
2023-03-04T10:33:20.975Z,3.90
2023-03-04T10:36:19.141Z,3.80
2023-03-04T10:38:46.549Z,3.80
2023-03-04T10:41:20.864Z,3.80
2023-03-04T10:44:03.238Z,3.90
2023-03-04T10:46:31.146Z,3.70
2023-03-04T10:48:58.863Z,3.80
2023-03-04T10:51:30.505Z,4.00
2023-03-04T10:54:07.861Z,4.10
2023-03-04T10:56:52.491Z,3.90
2023-03-04T10:59:39.927Z,3.80
2023-03-04T11:02:27.209Z,3.90
2023-03-04T11:05:15.491Z,3.80
2023-03-04T11:07:57.312Z,3.80
2023-03-04T11:10:36.407Z,3.80
2023-03-04T11:13:12.137Z,3.40
2023-03-04T11:16:05.599Z,3.40
2023-03-04T11:18:45.928Z,3.30
2023-03-04T11:21:20.175Z,3.50
2023-03-04T11:23:49.866Z,3.60
2023-03-04T11:26:23.381Z,3.60
2023-03-04T11:29:10.526Z,3.50
2023-03-04T11:31:45.152Z,3.90
2023-03-04T11:34:40.835Z,3.90
2023-03-04T11:37:18.826Z,4.00
2023-03-04T11:40:15.306Z,3.90
2023-03-04T11:42:48.189Z,4.00
2023-03-04T11:45:28.226Z,4.30
2023-03-04T11:48:25.519Z,4.10
2023-03-04T11:50:57.851Z,3.70
2023-03-04T11:53:28.295Z,3.40
2023-03-04T11:56:04.357Z,3.50
2023-03-04T11:59:02.523Z,3.60
2023-03-04T12:01:58.295Z,3.50
2023-03-04T12:04:51.228Z,3.40
2023-03-04T12:07:48.048Z,3.30
2023-03-04T12:10:18.408Z,3.20
2023-03-04T12:13:28.417Z,3.20
2023-03-04T12:16:09.066Z,3.30
2023-03-04T12:19:17.359Z,3.30
2023-03-04T12:22:22.704Z,3.30
2023-03-04T12:24:58.589Z,3.40
2023-03-04T12:27:53.531Z,3.40
2023-03-04T12:30:38.424Z,3.50
2023-03-04T12:33:21.314Z,3.20
2023-03-04T12:36:00.201Z,3.20
2023-03-04T12:38:39.238Z,3.20
2023-03-04T12:41:20.563Z,3.00
2023-03-04T12:44:05.880Z,2.90
2023-03-04T12:46:41.112Z,3.00
2023-03-04T12:49:39.723Z,2.90
2023-03-04T12:52:12.471Z,2.70
2023-03-04T12:54:43.290Z,2.70
2023-03-04T12:57:34.339Z,2.80
2023-03-04T13:00:29.429Z,3.00
2023-03-04T13:03:19.479Z,2.90
2023-03-04T13:05:58.561Z,2.90
2023-03-04T13:08:45.808Z,2.90
2023-03-04T13:11:34.005Z,2.70
2023-03-04T13:14:15.035Z,2.80
2023-03-04T13:16:45.444Z,2.70
2023-03-04T13:19:46.224Z,2.70
2023-03-04T13:23:01.050Z,2.60
2023-03-04T13:25:32.592Z,2.70
2023-03-04T13:28:03.044Z,2.70
2023-03-04T13:30:33.479Z,2.60
2023-03-04T13:33:15.489Z,2.50
2023-03-04T13:35:51.611Z,2.50
2023-03-04T13:38:34.229Z,2.40
2023-03-04T13:41:19.785Z,2.40
2023-03-04T13:43:52.038Z,2.50
2023-03-04T13:46:19.188Z,2.50
2023-03-04T13:48:46.471Z,2.30
2023-03-04T13:51:32.634Z,2.20
2023-03-04T13:53:59.762Z,2.30
2023-03-04T13:56:39.051Z,2.40
2023-03-04T13:59:08.928Z,2.30
2023-03-04T14:01:37.370Z,2.20
2023-03-04T14:04:22.799Z,2.10
2023-03-04T14:06:51.865Z,2.00
2023-03-04T14:09:25.238Z,2.00
2023-03-04T14:11:54.988Z,2.00
2023-03-04T14:14:26.913Z,2.00
2023-03-04T14:16:58.681Z,2.10
2023-03-04T14:19:30.393Z,2.40
2023-03-04T14:21:59.557Z,2.60
2023-03-04T14:24:27.164Z,2.60
2023-03-04T14:27:14.459Z,2.50
2023-03-04T14:29:41.944Z,2.50
2023-03-04T14:32:11.980Z,2.30
2023-03-04T14:34:39.756Z,2.30
2023-03-04T14:37:22.985Z,2.20
2023-03-04T14:39:55.766Z,2.00
2023-03-04T14:42:26.440Z,2.10
2023-03-04T14:44:57.066Z,2.20
2023-03-04T14:47:38.037Z,2.30
2023-03-04T14:50:08.242Z,2.30
2023-03-04T14:52:41.047Z,2.10
2023-03-04T14:55:14.735Z,1.90
2023-03-04T14:57:59.011Z,1.80
2023-03-04T15:00:36.893Z,1.80
2023-03-04T15:03:29.025Z,1.70
2023-03-04T15:06:05.903Z,1.80
2023-03-04T15:08:40.312Z,1.90
2023-03-04T15:11:08.654Z,2.00
2023-03-04T15:13:43.102Z,2.00
2023-03-04T15:16:12.166Z,2.00
2023-03-04T15:18:39.808Z,2.20
2023-03-04T15:21:34.344Z,2.10
2023-03-04T15:24:03.623Z,1.90
2023-03-04T15:26:33.715Z,1.80
2023-03-04T15:29:00.890Z,1.70
2023-03-04T15:31:30.029Z,1.80
2023-03-04T15:33:56.952Z,1.70
2023-03-04T15:36:24.532Z,1.70
2023-03-04T15:38:53.443Z,1.70
2023-03-04T15:41:25.875Z,1.70
2023-03-04T15:43:54.249Z,1.70
2023-03-04T15:46:22.241Z,1.50
2023-03-04T15:48:49.839Z,1.40
2023-03-04T15:51:22.185Z,1.30
2023-03-04T15:53:53.598Z,1.20
2023-03-04T15:56:24.181Z,1.20
2023-03-04T15:59:13.771Z,1.20
2023-03-04T16:01:41.437Z,1.10
2023-03-04T16:04:17.926Z,1.10
2023-03-04T16:06:47.020Z,1.10
2023-03-04T16:09:16.829Z,1.10
2023-03-04T16:11:47.392Z,1.00
2023-03-04T16:14:15.600Z,1.00
2023-03-04T16:16:44.332Z,1.00
2023-03-04T16:19:11.678Z,1.00
2023-03-04T16:21:39.309Z,1.00
2023-03-04T16:24:06.402Z,0.90
2023-03-04T16:26:34.546Z,0.90
2023-03-04T16:29:02.293Z,0.90
2023-03-04T16:31:29.793Z,0.90
2023-03-04T16:33:56.762Z,0.90
2023-03-04T16:36:26.684Z,0.90
2023-03-04T16:38:59.495Z,0.90
2023-03-04T16:41:28.354Z,0.80
2023-03-04T16:43:56.721Z,0.90
2023-03-04T16:46:24.609Z,0.80
2023-03-04T16:48:51.562Z,0.80
2023-03-04T16:51:21.929Z,0.80
2023-03-04T16:53:56.212Z,0.80
2023-03-04T16:56:23.766Z,0.70
2023-03-04T16:58:50.807Z,0.70
2023-03-04T17:01:20.662Z,0.60
2023-03-04T17:03:47.933Z,0.60
2023-03-04T17:06:15.787Z,0.60
2023-03-04T17:08:43.436Z,0.60
2023-03-04T17:11:17.230Z,0.70
2023-03-04T17:13:44.655Z,0.60
2023-03-04T17:16:12.503Z,0.50
2023-03-04T17:18:39.707Z,0.50
2023-03-04T17:21:10.696Z,0.50
2023-03-04T17:23:37.805Z,0.40
2023-03-04T17:26:06.069Z,0.40
2023-03-04T17:28:33.313Z,0.40
2023-03-04T17:31:00.669Z,0.30
2023-03-04T17:33:27.976Z,0.30
2023-03-04T17:35:56.823Z,0.30
2023-03-04T17:38:23.840Z,0.30
2023-03-04T17:40:51.093Z,0.30
2023-03-04T17:43:18.139Z,0.30
2023-03-04T17:45:45.302Z,0.40
2023-03-04T17:48:15.063Z,0.30
2023-03-04T17:50:52.743Z,0.30
2023-03-04T17:53:20.314Z,0.30
2023-03-04T17:55:52.612Z,0.30
2023-03-04T17:58:20.006Z,0.20
2023-03-04T18:00:48.153Z,0.30
2023-03-04T18:03:15.586Z,0.20
2023-03-04T18:05:43.099Z,0.20
2023-03-04T18:08:10.313Z,0.30
2023-03-04T18:10:37.564Z,0.20
2023-03-04T18:13:04.533Z,0.20
2023-03-04T18:15:32.158Z,0.20
2023-03-04T18:17:59.146Z,0.20
2023-03-04T18:20:26.750Z,0.20
2023-03-04T18:22:53.661Z,0.20
2023-03-04T18:25:21.437Z,0.20
2023-03-04T18:27:48.416Z,0.20
2023-03-04T18:30:21.017Z,0.20
2023-03-04T18:32:52.278Z,0.20
2023-03-04T18:35:21.215Z,0.20
2023-03-04T18:37:49.335Z,0.20
2023-03-04T18:40:17.282Z,0.20
2023-03-04T18:42:44.792Z,0.10
2023-03-04T18:45:16.903Z,0.20
2023-03-04T18:47:48.332Z,0.10
2023-03-04T18:50:16.146Z,0.10
2023-03-04T18:52:43.936Z,0.10
2023-03-04T18:55:12.975Z,0.10
2023-03-04T18:57:46.889Z,0.10
2023-03-04T19:00:21.981Z,0.10
2023-03-04T19:02:52.241Z,0.10
2023-03-04T19:05:23.040Z,0.00
2023-03-04T19:07:50.046Z,-0.10
2023-03-04T19:10:18.115Z,-0.10
2023-03-04T19:12:45.138Z,-0.10
2023-03-04T19:15:13.056Z,-0.10
2023-03-04T19:17:40.380Z,-0.20
2023-03-04T19:20:10.072Z,-0.30
2023-03-04T19:22:37.089Z,-0.30
2023-03-04T19:25:05.028Z,-0.30
2023-03-04T19:27:32.294Z,-0.30
2023-03-04T19:29:59.500Z,-0.30
2023-03-04T19:32:26.514Z,-0.30
2023-03-04T19:34:53.996Z,-0.30
2023-03-04T19:37:20.913Z,-0.30
2023-03-04T19:39:49.188Z,-0.30
2023-03-04T19:42:16.660Z,-0.30
2023-03-04T19:44:45.083Z,-0.20
2023-03-04T19:47:12.626Z,-0.30
2023-03-04T19:49:39.902Z,-0.20
2023-03-04T19:52:06.935Z,-0.20
2023-03-04T19:54:34.250Z,-0.30
2023-03-04T19:57:01.147Z,-0.30
2023-03-04T19:59:28.350Z,-0.30
2023-03-04T20:01:55.394Z,-0.40
2023-03-04T20:04:22.670Z,-0.40
2023-03-04T20:06:51.031Z,-0.50
2023-03-04T20:09:19.068Z,-0.50
2023-03-04T20:11:57.839Z,-0.60
2023-03-04T20:14:34.239Z,-0.70
2023-03-04T20:17:03.220Z,-0.70
2023-03-04T20:19:31.676Z,-0.70
2023-03-04T20:21:58.623Z,-0.70
2023-03-04T20:24:26.349Z,-0.80
2023-03-04T20:26:53.650Z,-0.80
2023-03-04T20:29:21.192Z,-0.80
2023-03-04T20:31:48.512Z,-0.80
2023-03-04T20:34:16.044Z,-0.90
2023-03-04T20:36:42.962Z,-0.80
2023-03-04T20:39:27.704Z,-0.90
2023-03-04T20:41:57.594Z,-1.00
2023-03-04T20:44:25.067Z,-1.00
2023-03-04T20:46:52.144Z,-1.10
2023-03-04T20:49:23.781Z,-1.10
2023-03-04T20:51:56.069Z,-1.10
2023-03-04T20:54:23.651Z,-1.10
2023-03-04T20:56:51.054Z,-1.20
2023-03-04T20:59:18.606Z,-1.20
2023-03-04T21:01:48.043Z,-1.20
2023-03-04T21:04:16.283Z,-1.30
2023-03-04T21:06:44.967Z,-1.20
2023-03-04T21:09:15.456Z,-1.20
2023-03-04T21:11:43.477Z,-1.20
2023-03-04T21:14:37.739Z,-1.20
2023-03-04T21:17:05.277Z,-1.10
2023-03-04T21:19:36.426Z,-1.10
2023-03-04T21:22:04.269Z,-1.20
2023-03-04T21:24:34.243Z,-1.20
2023-03-04T21:27:01.672Z,-1.20
2023-03-04T21:29:29.072Z,-1.20
2023-03-04T21:31:55.944Z,-1.20
2023-03-04T21:34:29.346Z,-1.20
2023-03-04T21:36:56.308Z,-1.10
2023-03-04T21:39:24.419Z,-1.10
2023-03-04T21:41:52.249Z,-1.00
2023-03-04T21:44:27.996Z,-1.00
2023-03-04T21:46:57.422Z,-1.10
2023-03-04T21:49:25.848Z,-1.10
2023-03-04T21:51:52.793Z,-1.20
2023-03-04T21:54:20.161Z,-1.20
2023-03-04T21:56:47.450Z,-1.20
2023-03-04T21:59:17.300Z,-1.20
2023-03-04T22:01:44.836Z,-1.20
2023-03-04T22:04:12.303Z,-1.20
2023-03-04T22:06:40.890Z,-1.20
2023-03-04T22:09:08.657Z,-1.20
2023-03-04T22:11:35.976Z,-1.20
2023-03-04T22:14:03.565Z,-1.20
2023-03-04T22:16:35.402Z,-1.20
2023-03-04T22:19:04.754Z,-1.10
2023-03-04T22:21:31.677Z,-1.10
2023-03-04T22:23:59.092Z,-1.20
2023-03-04T22:26:31.743Z,-1.20
2023-03-04T22:29:02.245Z,-1.20
2023-03-04T22:31:33.058Z,-1.10
2023-03-04T22:34:07.625Z,-1.20
2023-03-04T22:36:36.511Z,-1.20
2023-03-04T22:39:06.644Z,-1.20
2023-03-04T22:41:33.770Z,-1.20
2023-03-04T22:44:01.615Z,-1.20
2023-03-04T22:46:30.901Z,-1.20
2023-03-04T22:49:00.355Z,-1.20
2023-03-04T22:51:28.740Z,-1.20
2023-03-04T22:53:56.490Z,-1.20
2023-03-04T22:56:23.515Z,-1.20
2023-03-04T22:58:51.514Z,-1.20
2023-03-04T23:01:19.129Z,-1.20
2023-03-04T23:03:48.442Z,-1.20
2023-03-04T23:06:18.690Z,-1.10
2023-03-04T23:08:47.831Z,-1.00
2023-03-04T23:11:17.545Z,-1.00
2023-03-04T23:13:44.881Z,-0.80
2023-03-04T23:16:12.927Z,-0.70
2023-03-04T23:18:42.740Z,-0.50
2023-03-04T23:21:16.723Z,-0.40
2023-03-04T23:23:44.083Z,-0.40
2023-03-04T23:26:22.760Z,-0.30
2023-03-04T23:28:50.364Z,-0.20
2023-03-04T23:31:18.325Z,-0.10
2023-03-04T23:33:47.755Z,-0.10
2023-03-04T23:36:17.625Z,-0.10
2023-03-04T23:38:47.410Z,-0.10
2023-03-04T23:41:19.486Z,0.00
2023-03-04T23:43:48.280Z,0.00
2023-03-04T23:46:15.536Z,0.00
2023-03-04T23:48:46.340Z,0.00
2023-03-04T23:51:16.440Z,0.00
2023-03-04T23:53:44.134Z,0.00
2023-03-04T23:56:16.880Z,0.00
2023-03-04T23:58:44.507Z,0.00
